sensor_id;sensor_type;location;lat;lon;timestamp;P1;durP1;ratioP1;P2;durP2;ratioP2
23099;SDS011;53791;50.696;4.396;2022-08-05T00:01:51;18.48;;;17.00;;
23099;SDS011;53791;50.696;4.396;2022-08-05T00:04:18;17.30;;;16.00;;
23099;SDS011;53791;50.696;4.396;2022-08-05T00:06:47;18.05;;;16.65;;
23099;SDS011;53791;50.696;4.396;2022-08-05T00:11:57;18.67;;;17.17;;
23099;SDS011;53791;50.696;4.396;2022-08-05T00:14:26;17.98;;;16.57;;
23099;SDS011;53791;50.696;4.396;2022-08-05T00:22:54;18.62;;;17.12;;
23099;SDS011;53791;50.696;4.396;2022-08-05T00:25:21;19.35;;;17.82;;
23099;SDS011;53791;50.696;4.396;2022-08-05T00:27:49;19.20;;;17.70;;
23099;SDS011;53791;50.696;4.396;2022-08-05T00:30:17;19.20;;;17.70;;
23099;SDS011;53791;50.696;4.396;2022-08-05T00:32:44;19.20;;;17.70;;
23099;SDS011;53791;50.696;4.396;2022-08-05T00:35:13;19.37;;;17.82;;
23099;SDS011;53791;50.696;4.396;2022-08-05T00:37:41;19.52;;;17.90;;
23099;SDS011;53791;50.696;4.396;2022-08-05T00:40:09;19.60;;;18.02;;
23099;SDS011;53791;50.696;4.396;2022-08-05T00:42:37;19.50;;;17.90;;
23099;SDS011;53791;50.696;4.396;2022-08-05T00:45:08;19.77;;;18.17;;
23099;SDS011;53791;50.696;4.396;2022-08-05T00:47:36;20.35;;;18.75;;
23099;SDS011;53791;50.696;4.396;2022-08-05T00:50:06;19.10;;;17.57;;
23099;SDS011;53791;50.696;4.396;2022-08-05T00:52:34;19.98;;;18.37;;
23099;SDS011;53791;50.696;4.396;2022-08-05T00:55:02;20.55;;;18.65;;
23099;SDS011;53791;50.696;4.396;2022-08-05T00:57:30;22.02;;;19.95;;
23099;SDS011;53791;50.696;4.396;2022-08-05T00:59:57;20.88;;;19.20;;
23099;SDS011;53791;50.696;4.396;2022-08-05T01:02:25;22.35;;;20.25;;
23099;SDS011;53791;50.696;4.396;2022-08-05T01:04:53;21.20;;;19.50;;
23099;SDS011;53791;50.696;4.396;2022-08-05T01:07:20;21.80;;;19.90;;
23099;SDS011;53791;50.696;4.396;2022-08-05T01:09:48;22.15;;;20.35;;
23099;SDS011;53791;50.696;4.396;2022-08-05T01:12:16;21.90;;;20.15;;
23099;SDS011;53791;50.696;4.396;2022-08-05T01:17:22;23.32;;;21.42;;
23099;SDS011;53791;50.696;4.396;2022-08-05T01:22:45;25.02;;;22.93;;
23099;SDS011;53791;50.696;4.396;2022-08-05T01:30:45;23.83;;;21.93;;
23099;SDS011;53791;50.696;4.396;2022-08-05T01:33:13;24.20;;;22.22;;
23099;SDS011;53791;50.696;4.396;2022-08-05T01:35:43;23.98;;;22.02;;
23099;SDS011;53791;50.696;4.396;2022-08-05T01:38:13;24.20;;;22.20;;
23099;SDS011;53791;50.696;4.396;2022-08-05T01:40:43;24.27;;;22.22;;
23099;SDS011;53791;50.696;4.396;2022-08-05T01:43:12;24.35;;;22.37;;
23099;SDS011;53791;50.696;4.396;2022-08-05T01:45:41;23.87;;;21.95;;
23099;SDS011;53791;50.696;4.396;2022-08-05T01:48:09;23.95;;;22.05;;
23099;SDS011;53791;50.696;4.396;2022-08-05T01:50:38;23.83;;;21.93;;
23099;SDS011;53791;50.696;4.396;2022-08-05T01:53:08;23.30;;;21.40;;
23099;SDS011;53791;50.696;4.396;2022-08-05T01:55:37;23.45;;;21.55;;
23099;SDS011;53791;50.696;4.396;2022-08-05T01:58:06;23.95;;;21.97;;
23099;SDS011;53791;50.696;4.396;2022-08-05T02:00:37;23.75;;;21.65;;
23099;SDS011;53791;50.696;4.396;2022-08-05T02:03:11;30.48;;;22.13;;
23099;SDS011;53791;50.696;4.396;2022-08-05T02:05:52;24.47;;;22.48;;
23099;SDS011;53791;50.696;4.396;2022-08-05T02:08:20;24.32;;;22.32;;
23099;SDS011;53791;50.696;4.396;2022-08-05T02:10:51;24.82;;;22.60;;
23099;SDS011;53791;50.696;4.396;2022-08-05T02:13:24;23.62;;;21.73;;
23099;SDS011;53791;50.696;4.396;2022-08-05T02:16:06;23.87;;;21.97;;
23099;SDS011;53791;50.696;4.396;2022-08-05T02:18:36;24.20;;;22.20;;
23099;SDS011;53791;50.696;4.396;2022-08-05T02:23:42;24.47;;;22.48;;
23099;SDS011;53791;50.696;4.396;2022-08-05T02:26:12;23.95;;;21.85;;
23099;SDS011;53791;50.696;4.396;2022-08-05T02:28:42;24.60;;;22.40;;
23099;SDS011;53791;50.696;4.396;2022-08-05T02:31:18;23.75;;;21.85;;
23099;SDS011;53791;50.696;4.396;2022-08-05T02:33:50;24.47;;;21.97;;
23099;SDS011;53791;50.696;4.396;2022-08-05T02:36:19;24.20;;;22.17;;
23099;SDS011;53791;50.696;4.396;2022-08-05T02:38:49;24.52;;;22.52;;
23099;SDS011;53791;50.696;4.396;2022-08-05T02:41:18;24.80;;;22.80;;
23099;SDS011;53791;50.696;4.396;2022-08-05T02:43:47;24.47;;;22.48;;
23099;SDS011;53791;50.696;4.396;2022-08-05T02:46:17;24.82;;;22.82;;
23099;SDS011;53791;50.696;4.396;2022-08-05T02:48:47;23.85;;;21.93;;
23099;SDS011;53791;50.696;4.396;2022-08-05T02:51:15;24.07;;;22.07;;
23099;SDS011;53791;50.696;4.396;2022-08-05T02:53:43;25.60;;;23.22;;
23099;SDS011;53791;50.696;4.396;2022-08-05T02:56:12;24.40;;;22.30;;
23099;SDS011;53791;50.696;4.396;2022-08-05T02:58:40;24.12;;;22.13;;
23099;SDS011;53791;50.696;4.396;2022-08-05T03:01:10;24.02;;;22.02;;
23099;SDS011;53791;50.696;4.396;2022-08-05T03:03:39;25.27;;;22.80;;
23099;SDS011;53791;50.696;4.396;2022-08-05T03:06:10;23.70;;;21.80;;
23099;SDS011;53791;50.696;4.396;2022-08-05T03:08:38;24.67;;;22.67;;
23099;SDS011;53791;50.696;4.396;2022-08-05T03:11:23;25.20;;;23.05;;
23099;SDS011;53791;50.696;4.396;2022-08-05T03:13:52;25.27;;;23.27;;
23099;SDS011;53791;50.696;4.396;2022-08-05T03:16:20;25.37;;;23.27;;
23099;SDS011;53791;50.696;4.396;2022-08-05T03:18:48;26.07;;;23.75;;
23099;SDS011;53791;50.696;4.396;2022-08-05T03:21:15;25.60;;;23.50;;
23099;SDS011;53791;50.696;4.396;2022-08-05T03:23:43;24.77;;;22.77;;
23099;SDS011;53791;50.696;4.396;2022-08-05T03:26:11;25.40;;;23.30;;
23099;SDS011;53791;50.696;4.396;2022-08-05T03:28:39;25.45;;;23.38;;
23099;SDS011;53791;50.696;4.396;2022-08-05T03:31:06;25.40;;;23.20;;
23099;SDS011;53791;50.696;4.396;2022-08-05T03:33:35;24.67;;;22.67;;
23099;SDS011;53791;50.696;4.396;2022-08-05T03:36:03;25.45;;;23.30;;
23099;SDS011;53791;50.696;4.396;2022-08-05T03:38:31;25.68;;;23.52;;
23099;SDS011;53791;50.696;4.396;2022-08-05T03:40:59;25.82;;;23.25;;
23099;SDS011;53791;50.696;4.396;2022-08-05T03:43:26;25.52;;;23.42;;
23099;SDS011;53791;50.696;4.396;2022-08-05T03:45:54;25.45;;;23.35;;
23099;SDS011;53791;50.696;4.396;2022-08-05T03:48:21;25.85;;;23.60;;
23099;SDS011;53791;50.696;4.396;2022-08-05T03:50:54;25.65;;;23.50;;
23099;SDS011;53791;50.696;4.396;2022-08-05T03:53:31;26.90;;;24.50;;
23099;SDS011;53791;50.696;4.396;2022-08-05T03:56:05;26.42;;;24.23;;
23099;SDS011;53791;50.696;4.396;2022-08-05T03:58:35;25.90;;;23.73;;
23099;SDS011;53791;50.696;4.396;2022-08-05T04:01:06;25.90;;;23.80;;
23099;SDS011;53791;50.696;4.396;2022-08-05T04:03:35;26.95;;;24.65;;
23099;SDS011;53791;50.696;4.396;2022-08-05T04:06:04;26.65;;;24.45;;
23099;SDS011;53791;50.696;4.396;2022-08-05T04:08:34;27.02;;;24.80;;
23099;SDS011;53791;50.696;4.396;2022-08-05T04:11:02;26.93;;;24.65;;
23099;SDS011;53791;50.696;4.396;2022-08-05T04:13:32;26.42;;;24.23;;
23099;SDS011;53791;50.696;4.396;2022-08-05T04:15:59;27.60;;;24.87;;
23099;SDS011;53791;50.696;4.396;2022-08-05T04:18:27;26.65;;;24.45;;
23099;SDS011;53791;50.696;4.396;2022-08-05T04:20:55;27.50;;;25.12;;
23099;SDS011;53791;50.696;4.396;2022-08-05T04:23:29;26.70;;;24.50;;
23099;SDS011;53791;50.696;4.396;2022-08-05T04:25:53;26.95;;;24.70;;
23099;SDS011;53791;50.696;4.396;2022-08-05T04:28:20;27.13;;;24.90;;
23099;SDS011;53791;50.696;4.396;2022-08-05T04:30:48;27.15;;;24.95;;
23099;SDS011;53791;50.696;4.396;2022-08-05T04:33:16;27.32;;;25.10;;
23099;SDS011;53791;50.696;4.396;2022-08-05T04:35:43;26.57;;;24.37;;
23099;SDS011;53791;50.696;4.396;2022-08-05T04:38:11;27.70;;;25.30;;
23099;SDS011;53791;50.696;4.396;2022-08-05T04:40:38;26.75;;;24.55;;
23099;SDS011;53791;50.696;4.396;2022-08-05T04:43:07;26.65;;;24.55;;
23099;SDS011;53791;50.696;4.396;2022-08-05T04:45:34;26.70;;;24.50;;
23099;SDS011;53791;50.696;4.396;2022-08-05T04:48:05;27.70;;;25.43;;
23099;SDS011;53791;50.696;4.396;2022-08-05T04:50:41;27.22;;;25.02;;
23099;SDS011;53791;50.696;4.396;2022-08-05T04:53:08;28.70;;;26.30;;
23099;SDS011;53791;50.696;4.396;2022-08-05T04:55:36;28.00;;;25.70;;
23099;SDS011;53791;50.696;4.396;2022-08-05T04:58:05;27.85;;;25.55;;
23099;SDS011;53791;50.696;4.396;2022-08-05T05:00:34;27.62;;;25.43;;
23099;SDS011;53791;50.696;4.396;2022-08-05T05:03:03;28.57;;;26.07;;
23099;SDS011;53791;50.696;4.396;2022-08-05T05:05:31;28.60;;;26.20;;
23099;SDS011;53791;50.696;4.396;2022-08-05T05:08:01;27.95;;;25.55;;
23099;SDS011;53791;50.696;4.396;2022-08-05T05:10:32;28.52;;;26.05;;
23099;SDS011;53791;50.696;4.396;2022-08-05T05:13:03;27.90;;;25.60;;
23099;SDS011;53791;50.696;4.396;2022-08-05T05:15:30;28.40;;;26.10;;
23099;SDS011;53791;50.696;4.396;2022-08-05T05:17:58;28.07;;;25.57;;
23099;SDS011;53791;50.696;4.396;2022-08-05T05:20:25;28.57;;;26.17;;
23099;SDS011;53791;50.696;4.396;2022-08-05T05:22:53;40.50;;;26.73;;
23099;SDS011;53791;50.696;4.396;2022-08-05T05:25:21;27.85;;;25.55;;
23099;SDS011;53791;50.696;4.396;2022-08-05T05:27:48;28.10;;;25.77;;
23099;SDS011;53791;50.696;4.396;2022-08-05T05:30:17;27.93;;;25.60;;
23099;SDS011;53791;50.696;4.396;2022-08-05T05:32:45;28.95;;;26.55;;
23099;SDS011;53791;50.696;4.396;2022-08-05T05:35:13;28.30;;;25.65;;
23099;SDS011;53791;50.696;4.396;2022-08-05T05:37:48;27.48;;;25.17;;
23099;SDS011;53791;50.696;4.396;2022-08-05T05:40:17;29.60;;;27.10;;
23099;SDS011;53791;50.696;4.396;2022-08-05T05:42:46;28.70;;;26.12;;
23099;SDS011;53791;50.696;4.396;2022-08-05T05:45:14;29.25;;;26.75;;
23099;SDS011;53791;50.696;4.396;2022-08-05T05:47:42;29.45;;;27.05;;
23099;SDS011;53791;50.696;4.396;2022-08-05T05:50:11;28.42;;;26.12;;
23099;SDS011;53791;50.696;4.396;2022-08-05T05:52:40;28.60;;;26.05;;
23099;SDS011;53791;50.696;4.396;2022-08-05T05:55:09;28.02;;;25.70;;
23099;SDS011;53791;50.696;4.396;2022-08-05T05:57:39;29.20;;;26.75;;
23099;SDS011;53791;50.696;4.396;2022-08-05T06:00:11;29.48;;;27.07;;
23099;SDS011;53791;50.696;4.396;2022-08-05T06:02:41;31.27;;;28.55;;
23099;SDS011;53791;50.696;4.396;2022-08-05T06:05:09;29.52;;;27.13;;
23099;SDS011;53791;50.696;4.396;2022-08-05T06:07:38;30.20;;;27.67;;
23099;SDS011;53791;50.696;4.396;2022-08-05T06:10:06;29.40;;;26.80;;
23099;SDS011;53791;50.696;4.396;2022-08-05T06:12:35;28.90;;;26.40;;
23099;SDS011;53791;50.696;4.396;2022-08-05T06:15:09;29.67;;;27.15;;
23099;SDS011;53791;50.696;4.396;2022-08-05T06:17:33;30.32;;;27.82;;
23099;SDS011;53791;50.696;4.396;2022-08-05T06:20:02;29.20;;;26.70;;
23099;SDS011;53791;50.696;4.396;2022-08-05T06:22:31;29.52;;;26.82;;
23099;SDS011;53791;50.696;4.396;2022-08-05T06:24:59;28.32;;;25.92;;
23099;SDS011;53791;50.696;4.396;2022-08-05T06:27:28;28.83;;;26.42;;
23099;SDS011;53791;50.696;4.396;2022-08-05T06:29:55;30.65;;;28.05;;
23099;SDS011;53791;50.696;4.396;2022-08-05T06:32:26;33.35;;;26.50;;
23099;SDS011;53791;50.696;4.396;2022-08-05T06:34:54;29.35;;;26.97;;
23099;SDS011;53791;50.696;4.396;2022-08-05T06:37:26;30.27;;;27.65;;
23099;SDS011;53791;50.696;4.396;2022-08-05T06:39:54;29.40;;;26.90;;
23099;SDS011;53791;50.696;4.396;2022-08-05T06:42:21;28.73;;;26.33;;
23099;SDS011;53791;50.696;4.396;2022-08-05T06:44:49;30.10;;;27.50;;
23099;SDS011;53791;50.696;4.396;2022-08-05T06:47:16;30.62;;;28.12;;
23099;SDS011;53791;50.696;4.396;2022-08-05T06:49:44;44.73;;;28.25;;
23099;SDS011;53791;50.696;4.396;2022-08-05T06:52:11;30.75;;;28.05;;
23099;SDS011;53791;50.696;4.396;2022-08-05T06:54:39;30.97;;;28.38;;
23099;SDS011;53791;50.696;4.396;2022-08-05T06:57:06;32.67;;;29.87;;
23099;SDS011;53791;50.696;4.396;2022-08-05T06:59:34;33.78;;;30.92;;
23099;SDS011;53791;50.696;4.396;2022-08-05T07:02:01;32.88;;;30.10;;
23099;SDS011;53791;50.696;4.396;2022-08-05T07:04:29;31.62;;;29.02;;
23099;SDS011;53791;50.696;4.396;2022-08-05T07:06:56;29.23;;;26.82;;
23099;SDS011;53791;50.696;4.396;2022-08-05T07:09:24;29.95;;;27.35;;
23099;SDS011;53791;50.696;4.396;2022-08-05T07:11:51;28.15;;;25.75;;
23099;SDS011;53791;50.696;4.396;2022-08-05T07:14:20;27.22;;;24.90;;
23099;SDS011;53791;50.696;4.396;2022-08-05T07:17:06;25.90;;;23.75;;
23099;SDS011;53791;50.696;4.396;2022-08-05T07:19:33;25.50;;;23.30;;
23099;SDS011;53791;50.696;4.396;2022-08-05T07:22:01;25.10;;;22.90;;
23099;SDS011;53791;50.696;4.396;2022-08-05T07:24:29;24.72;;;22.48;;
23099;SDS011;53791;50.696;4.396;2022-08-05T07:26:59;24.10;;;22.07;;
23099;SDS011;53791;50.696;4.396;2022-08-05T07:29:26;24.07;;;21.97;;
23099;SDS011;53791;50.696;4.396;2022-08-05T07:31:54;24.40;;;22.20;;
23099;SDS011;53791;50.696;4.396;2022-08-05T07:34:21;23.27;;;21.37;;
23099;SDS011;53791;50.696;4.396;2022-08-05T07:36:49;23.47;;;21.42;;
23099;SDS011;53791;50.696;4.396;2022-08-05T07:39:16;22.73;;;20.60;;
23099;SDS011;53791;50.696;4.396;2022-08-05T07:41:45;23.00;;;21.07;;
23099;SDS011;53791;50.696;4.396;2022-08-05T07:44:13;23.12;;;20.92;;
23099;SDS011;53791;50.696;4.396;2022-08-05T07:46:43;21.02;;;19.32;;
23099;SDS011;53791;50.696;4.396;2022-08-05T07:49:12;20.12;;;18.52;;
23099;SDS011;53791;50.696;4.396;2022-08-05T07:51:40;17.80;;;16.40;;
23099;SDS011;53791;50.696;4.396;2022-08-05T07:54:07;24.02;;;21.93;;
23099;SDS011;53791;50.696;4.396;2022-08-05T07:56:41;19.23;;;17.73;;
23099;SDS011;53791;50.696;4.396;2022-08-05T07:59:16;19.90;;;18.30;;
23099;SDS011;53791;50.696;4.396;2022-08-05T08:01:43;18.62;;;17.12;;
23099;SDS011;53791;50.696;4.396;2022-08-05T08:04:11;18.10;;;16.60;;
23099;SDS011;53791;50.696;4.396;2022-08-05T08:06:40;19.52;;;17.70;;
23099;SDS011;53791;50.696;4.396;2022-08-05T08:09:07;17.75;;;16.32;;
23099;SDS011;53791;50.696;4.396;2022-08-05T08:11:36;18.42;;;16.97;;
23099;SDS011;53791;50.696;4.396;2022-08-05T08:14:05;18.32;;;16.93;;
23099;SDS011;53791;50.696;4.396;2022-08-05T08:16:33;18.27;;;16.80;;
23099;SDS011;53791;50.696;4.396;2022-08-05T08:19:00;18.35;;;16.85;;
23099;SDS011;53791;50.696;4.396;2022-08-05T08:21:28;19.20;;;17.60;;
23099;SDS011;53791;50.696;4.396;2022-08-05T08:23:57;19.37;;;17.77;;
23099;SDS011;53791;50.696;4.396;2022-08-05T08:26:24;18.87;;;17.27;;
23099;SDS011;53791;50.696;4.396;2022-08-05T08:28:52;18.98;;;17.45;;
23099;SDS011;53791;50.696;4.396;2022-08-05T08:31:19;18.65;;;17.15;;
23099;SDS011;53791;50.696;4.396;2022-08-05T08:33:51;18.42;;;16.82;;
23099;SDS011;53791;50.696;4.396;2022-08-05T08:36:24;18.52;;;16.85;;
23099;SDS011;53791;50.696;4.396;2022-08-05T08:38:47;18.52;;;16.82;;
23099;SDS011;53791;50.696;4.396;2022-08-05T08:41:16;18.10;;;16.62;;
23099;SDS011;53791;50.696;4.396;2022-08-05T08:43:44;18.20;;;16.80;;
23099;SDS011;53791;50.696;4.396;2022-08-05T08:46:15;19.02;;;17.15;;
23099;SDS011;53791;50.696;4.396;2022-08-05T08:48:51;18.35;;;16.60;;
23099;SDS011;53791;50.696;4.396;2022-08-05T08:51:15;20.77;;;17.10;;
23099;SDS011;53791;50.696;4.396;2022-08-05T08:53:45;17.27;;;15.93;;
23099;SDS011;53791;50.696;4.396;2022-08-05T08:56:13;17.57;;;16.17;;
23099;SDS011;53791;50.696;4.396;2022-08-05T08:58:42;17.87;;;16.35;;
23099;SDS011;53791;50.696;4.396;2022-08-05T09:01:09;17.25;;;15.95;;
23099;SDS011;53791;50.696;4.396;2022-08-05T09:03:37;17.62;;;16.23;;
23099;SDS011;53791;50.696;4.396;2022-08-05T09:06:07;16.93;;;15.63;;
23099;SDS011;53791;50.696;4.396;2022-08-05T09:08:34;18.10;;;16.55;;
23099;SDS011;53791;50.696;4.396;2022-08-05T09:11:02;18.50;;;17.00;;
23099;SDS011;53791;50.696;4.396;2022-08-05T09:13:33;17.12;;;15.93;;
23099;SDS011;53791;50.696;4.396;2022-08-05T09:16:02;17.57;;;16.17;;
23099;SDS011;53791;50.696;4.396;2022-08-05T09:18:31;17.92;;;16.52;;
23099;SDS011;53791;50.696;4.396;2022-08-05T09:21:02;17.95;;;16.45;;
23099;SDS011;53791;50.696;4.396;2022-08-05T09:23:32;17.27;;;15.98;;
23099;SDS011;53791;50.696;4.396;2022-08-05T09:26:05;17.80;;;16.40;;
23099;SDS011;53791;50.696;4.396;2022-08-05T09:28:35;17.62;;;16.12;;
23099;SDS011;53791;50.696;4.396;2022-08-05T09:31:04;17.42;;;16.12;;
23099;SDS011;53791;50.696;4.396;2022-08-05T09:33:48;17.67;;;16.27;;
23099;SDS011;53791;50.696;4.396;2022-08-05T09:36:18;17.70;;;16.20;;
23099;SDS011;53791;50.696;4.396;2022-08-05T09:38:54;16.48;;;15.25;;
23099;SDS011;53791;50.696;4.396;2022-08-05T09:41:32;18.02;;;16.30;;
23099;SDS011;53791;50.696;4.396;2022-08-05T09:43:58;18.25;;;16.75;;
23099;SDS011;53791;50.696;4.396;2022-08-05T09:46:32;17.32;;;16.02;;
23099;SDS011;53791;50.696;4.396;2022-08-05T09:49:00;17.55;;;16.17;;
23099;SDS011;53791;50.696;4.396;2022-08-05T09:51:31;16.55;;;15.35;;
23099;SDS011;53791;50.696;4.396;2022-08-05T09:54:00;17.32;;;15.93;;
23099;SDS011;53791;50.696;4.396;2022-08-05T09:56:30;17.35;;;16.00;;
23099;SDS011;53791;50.696;4.396;2022-08-05T09:58:59;17.50;;;16.10;;
23099;SDS011;53791;50.696;4.396;2022-08-05T10:01:29;17.00;;;15.68;;
23099;SDS011;53791;50.696;4.396;2022-08-05T10:04:03;17.15;;;15.78;;
23099;SDS011;53791;50.696;4.396;2022-08-05T10:06:35;17.50;;;16.00;;
23099;SDS011;53791;50.696;4.396;2022-08-05T10:11:41;17.40;;;16.10;;
23099;SDS011;53791;50.696;4.396;2022-08-05T10:14:25;17.07;;;15.78;;
23099;SDS011;53791;50.696;4.396;2022-08-05T10:16:56;16.40;;;15.20;;
23099;SDS011;53791;50.696;4.396;2022-08-05T10:19:32;17.30;;;16.00;;
23099;SDS011;53791;50.696;4.396;2022-08-05T10:22:07;16.10;;;14.90;;
23099;SDS011;53791;50.696;4.396;2022-08-05T10:24:30;16.50;;;15.25;;
23099;SDS011;53791;50.696;4.396;2022-08-05T10:27:05;16.85;;;15.40;;
23099;SDS011;53791;50.696;4.396;2022-08-05T10:29:31;16.67;;;15.38;;
23099;SDS011;53791;50.696;4.396;2022-08-05T10:32:01;16.10;;;14.87;;
23099;SDS011;53791;50.696;4.396;2022-08-05T10:34:29;16.65;;;15.38;;
23099;SDS011;53791;50.696;4.396;2022-08-05T10:37:04;16.23;;;15.00;;
23099;SDS011;53791;50.696;4.396;2022-08-05T10:39:29;15.75;;;14.55;;
23099;SDS011;53791;50.696;4.396;2022-08-05T10:42:02;16.05;;;14.78;;
23099;SDS011;53791;50.696;4.396;2022-08-05T10:44:35;16.75;;;15.48;;
23099;SDS011;53791;50.696;4.396;2022-08-05T10:47:10;15.65;;;14.50;;
23099;SDS011;53791;50.696;4.396;2022-08-05T10:52:42;15.50;;;14.40;;
23099;SDS011;53791;50.696;4.396;2022-08-05T10:55:07;15.50;;;14.40;;
23099;SDS011;53791;50.696;4.396;2022-08-05T10:57:36;15.38;;;14.28;;
23099;SDS011;53791;50.696;4.396;2022-08-05T11:00:15;15.48;;;14.38;;
23099;SDS011;53791;50.696;4.396;2022-08-05T11:05:36;16.32;;;14.93;;
23099;SDS011;53791;50.696;4.396;2022-08-05T11:08:13;14.98;;;13.88;;
23099;SDS011;53791;50.696;4.396;2022-08-05T11:10:37;15.30;;;14.20;;
23099;SDS011;53791;50.696;4.396;2022-08-05T11:13:07;15.30;;;14.20;;
23099;SDS011;53791;50.696;4.396;2022-08-05T11:15:36;15.40;;;14.30;;
23099;SDS011;53791;50.696;4.396;2022-08-05T11:18:27;15.85;;;14.50;;
23099;SDS011;53791;50.696;4.396;2022-08-05T11:20:58;15.60;;;14.40;;
23099;SDS011;53791;50.696;4.396;2022-08-05T11:23:28;15.25;;;14.15;;
23099;SDS011;53791;50.696;4.396;2022-08-05T11:28:36;15.20;;;14.10;;
23099;SDS011;53791;50.696;4.396;2022-08-05T11:33:34;15.05;;;13.95;;
23099;SDS011;53791;50.696;4.396;2022-08-05T11:36:18;14.93;;;13.83;;
23099;SDS011;53791;50.696;4.396;2022-08-05T11:38:50;14.50;;;13.40;;
23099;SDS011;53791;50.696;4.396;2022-08-05T11:41:25;14.98;;;13.88;;
23099;SDS011;53791;50.696;4.396;2022-08-05T11:43:57;14.85;;;13.75;;
23099;SDS011;53791;50.696;4.396;2022-08-05T11:46:34;14.47;;;13.48;;
23099;SDS011;53791;50.696;4.396;2022-08-05T11:49:03;15.32;;;14.23;;
23099;SDS011;53791;50.696;4.396;2022-08-05T11:51:32;14.20;;;13.20;;
23099;SDS011;53791;50.696;4.396;2022-08-05T11:54:00;14.75;;;13.72;;
23099;SDS011;53791;50.696;4.396;2022-08-05T11:59:20;14.40;;;13.40;;
23099;SDS011;53791;50.696;4.396;2022-08-05T12:01:56;13.70;;;12.80;;
23099;SDS011;53791;50.696;4.396;2022-08-05T12:04:25;14.38;;;13.32;;
23099;SDS011;53791;50.696;4.396;2022-08-05T12:06:54;14.53;;;13.53;;
23099;SDS011;53791;50.696;4.396;2022-08-05T12:09:24;14.60;;;13.50;;
23099;SDS011;53791;50.696;4.396;2022-08-05T12:11:53;14.30;;;13.20;;
23099;SDS011;53791;50.696;4.396;2022-08-05T12:14:22;13.70;;;12.70;;
23099;SDS011;53791;50.696;4.396;2022-08-05T12:16:50;13.90;;;12.90;;
23099;SDS011;53791;50.696;4.396;2022-08-05T12:19:17;13.70;;;12.70;;
23099;SDS011;53791;50.696;4.396;2022-08-05T12:21:52;13.93;;;12.93;;
23099;SDS011;53791;50.696;4.396;2022-08-05T12:24:17;15.32;;;13.70;;
23099;SDS011;53791;50.696;4.396;2022-08-05T12:26:47;15.13;;;13.80;;
23099;SDS011;53791;50.696;4.396;2022-08-05T12:29:17;14.30;;;13.30;;
23099;SDS011;53791;50.696;4.396;2022-08-05T12:31:52;14.60;;;13.50;;
23099;SDS011;53791;50.696;4.396;2022-08-05T12:34:21;14.78;;;13.68;;
23099;SDS011;53791;50.696;4.396;2022-08-05T12:36:54;14.40;;;13.40;;
23099;SDS011;53791;50.696;4.396;2022-08-05T12:39:31;14.78;;;13.68;;
23099;SDS011;53791;50.696;4.396;2022-08-05T12:41:59;14.10;;;13.10;;
23099;SDS011;53791;50.696;4.396;2022-08-05T12:44:26;16.27;;;13.72;;
23099;SDS011;53791;50.696;4.396;2022-08-05T12:46:54;14.50;;;13.40;;
23099;SDS011;53791;50.696;4.396;2022-08-05T12:49:22;18.45;;;13.85;;
23099;SDS011;53791;50.696;4.396;2022-08-05T12:51:50;14.50;;;13.40;;
23099;SDS011;53791;50.696;4.396;2022-08-05T12:54:20;17.40;;;13.80;;
23099;SDS011;53791;50.696;4.396;2022-08-05T12:56:50;13.90;;;12.90;;
23099;SDS011;53791;50.696;4.396;2022-08-05T12:59:20;14.80;;;13.70;;
23099;SDS011;53791;50.696;4.396;2022-08-05T13:01:55;14.40;;;13.18;;
23099;SDS011;53791;50.696;4.396;2022-08-05T13:04:21;13.65;;;12.65;;
23099;SDS011;53791;50.696;4.396;2022-08-05T13:06:50;14.28;;;12.88;;
23099;SDS011;53791;50.696;4.396;2022-08-05T13:09:18;13.83;;;12.82;;
23099;SDS011;53791;50.696;4.396;2022-08-05T13:11:47;14.03;;;13.03;;
23099;SDS011;53791;50.696;4.396;2022-08-05T13:14:16;13.88;;;12.88;;
23099;SDS011;53791;50.696;4.396;2022-08-05T13:16:46;13.50;;;12.50;;
23099;SDS011;53791;50.696;4.396;2022-08-05T13:19:15;13.70;;;12.70;;
23099;SDS011;53791;50.696;4.396;2022-08-05T13:21:45;13.40;;;12.50;;
23099;SDS011;53791;50.696;4.396;2022-08-05T13:24:13;14.40;;;13.20;;
23099;SDS011;53791;50.696;4.396;2022-08-05T13:26:42;14.00;;;13.00;;
23099;SDS011;53791;50.696;4.396;2022-08-05T13:29:13;13.50;;;12.60;;
23099;SDS011;53791;50.696;4.396;2022-08-05T13:31:42;14.20;;;13.10;;
23099;SDS011;53791;50.696;4.396;2022-08-05T13:34:10;13.80;;;12.78;;
23099;SDS011;53791;50.696;4.396;2022-08-05T13:36:39;13.70;;;12.70;;
23099;SDS011;53791;50.696;4.396;2022-08-05T13:39:07;13.80;;;12.80;;
23099;SDS011;53791;50.696;4.396;2022-08-05T13:41:35;13.90;;;12.90;;
23099;SDS011;53791;50.696;4.396;2022-08-05T13:44:03;13.90;;;12.90;;
23099;SDS011;53791;50.696;4.396;2022-08-05T13:46:30;13.90;;;12.90;;
23099;SDS011;53791;50.696;4.396;2022-08-05T13:48:58;13.80;;;12.80;;
23099;SDS011;53791;50.696;4.396;2022-08-05T13:51:31;14.33;;;13.22;;
23099;SDS011;53791;50.696;4.396;2022-08-05T13:53:58;13.32;;;12.35;;
23099;SDS011;53791;50.696;4.396;2022-08-05T13:56:26;13.48;;;12.58;;
23099;SDS011;53791;50.696;4.396;2022-08-05T13:58:53;13.85;;;12.85;;
23099;SDS011;53791;50.696;4.396;2022-08-05T14:01:21;13.62;;;12.63;;
23099;SDS011;53791;50.696;4.396;2022-08-05T14:03:51;13.38;;;12.47;;
23099;SDS011;53791;50.696;4.396;2022-08-05T14:06:44;13.65;;;12.65;;
23099;SDS011;53791;50.696;4.396;2022-08-05T14:09:07;13.93;;;12.93;;
23099;SDS011;53791;50.696;4.396;2022-08-05T14:11:35;12.90;;;12.00;;
23099;SDS011;53791;50.696;4.396;2022-08-05T14:14:04;13.80;;;12.80;;
23099;SDS011;53791;50.696;4.396;2022-08-05T14:16:33;13.15;;;12.25;;
23099;SDS011;53791;50.696;4.396;2022-08-05T14:19:02;13.65;;;12.65;;
23099;SDS011;53791;50.696;4.396;2022-08-05T14:21:29;13.22;;;12.28;;
23099;SDS011;53791;50.696;4.396;2022-08-05T14:23:57;13.22;;;12.33;;
23099;SDS011;53791;50.696;4.396;2022-08-05T14:26:24;13.10;;;12.20;;
23099;SDS011;53791;50.696;4.396;2022-08-05T14:28:52;13.32;;;12.35;;
23099;SDS011;53791;50.696;4.396;2022-08-05T14:31:19;13.68;;;12.68;;
23099;SDS011;53791;50.696;4.396;2022-08-05T14:33:47;12.85;;;11.95;;
23099;SDS011;53791;50.696;4.396;2022-08-05T14:36:14;13.00;;;12.10;;
23099;SDS011;53791;50.696;4.396;2022-08-05T14:38:45;13.15;;;12.15;;
23099;SDS011;53791;50.696;4.396;2022-08-05T14:41:13;13.20;;;12.30;;
23099;SDS011;53791;50.696;4.396;2022-08-05T14:43:40;12.75;;;11.85;;
23099;SDS011;53791;50.696;4.396;2022-08-05T14:46:08;12.82;;;11.93;;
23099;SDS011;53791;50.696;4.396;2022-08-05T14:48:35;13.13;;;12.23;;
23099;SDS011;53791;50.696;4.396;2022-08-05T14:51:03;12.90;;;12.00;;
23099;SDS011;53791;50.696;4.396;2022-08-05T14:53:30;13.53;;;12.53;;
23099;SDS011;53791;50.696;4.396;2022-08-05T14:55:58;13.50;;;12.50;;
23099;SDS011;53791;50.696;4.396;2022-08-05T14:58:25;13.20;;;12.30;;
23099;SDS011;53791;50.696;4.396;2022-08-05T15:00:54;13.08;;;12.18;;
23099;SDS011;53791;50.696;4.396;2022-08-05T15:03:22;13.18;;;12.28;;
23099;SDS011;53791;50.696;4.396;2022-08-05T15:05:49;13.32;;;12.33;;
23099;SDS011;53791;50.696;4.396;2022-08-05T15:08:17;12.53;;;11.63;;
23099;SDS011;53791;50.696;4.396;2022-08-05T15:10:44;13.20;;;12.30;;
23099;SDS011;53791;50.696;4.396;2022-08-05T15:13:12;12.75;;;11.85;;